sensor_id;sensor_type;location;lat;lon;timestamp;P1;durP1;ratioP1;P2;durP2;ratioP2
51270;SDS011;37744;50.960;4.136;2023-03-12T00:00:35;9.10;;;3.53;;
51270;SDS011;37744;50.960;4.136;2023-03-12T00:03:01;9.15;;;3.88;;
51270;SDS011;37744;50.960;4.136;2023-03-12T00:05:26;9.43;;;3.75;;
51270;SDS011;37744;50.960;4.136;2023-03-12T00:07:52;9.13;;;4.35;;
51270;SDS011;37744;50.960;4.136;2023-03-12T00:10:18;8.00;;;4.25;;
51270;SDS011;37744;50.960;4.136;2023-03-12T00:12:43;11.63;;;5.18;;
51270;SDS011;37744;50.960;4.136;2023-03-12T00:15:10;12.70;;;4.28;;
51270;SDS011;37744;50.960;4.136;2023-03-12T00:17:36;10.38;;;4.82;;
51270;SDS011;37744;50.960;4.136;2023-03-12T00:20:02;7.38;;;4.60;;
51270;SDS011;37744;50.960;4.136;2023-03-12T00:22:30;14.63;;;4.80;;
51270;SDS011;37744;50.960;4.136;2023-03-12T00:24:55;8.77;;;4.47;;
51270;SDS011;37744;50.960;4.136;2023-03-12T00:27:21;12.45;;;5.38;;
51270;SDS011;37744;50.960;4.136;2023-03-12T00:29:47;10.18;;;5.18;;
51270;SDS011;37744;50.960;4.136;2023-03-12T00:32:13;12.25;;;5.13;;
51270;SDS011;37744;50.960;4.136;2023-03-12T00:34:38;10.80;;;4.90;;
51270;SDS011;37744;50.960;4.136;2023-03-12T00:37:05;12.27;;;5.63;;
51270;SDS011;37744;50.960;4.136;2023-03-12T00:39:31;11.38;;;4.75;;
51270;SDS011;37744;50.960;4.136;2023-03-12T00:41:56;12.35;;;5.00;;
51270;SDS011;37744;50.960;4.136;2023-03-12T00:44:22;14.05;;;4.72;;
51270;SDS011;37744;50.960;4.136;2023-03-12T00:46:47;8.32;;;4.57;;
51270;SDS011;37744;50.960;4.136;2023-03-12T00:49:12;12.90;;;3.90;;
51270;SDS011;37744;50.960;4.136;2023-03-12T00:51:38;8.43;;;3.72;;
51270;SDS011;37744;50.960;4.136;2023-03-12T00:54:03;9.60;;;3.63;;
51270;SDS011;37744;50.960;4.136;2023-03-12T00:56:29;8.80;;;3.97;;
51270;SDS011;37744;50.960;4.136;2023-03-12T00:58:54;13.55;;;3.78;;
51270;SDS011;37744;50.960;4.136;2023-03-12T01:01:19;11.52;;;3.70;;
51270;SDS011;37744;50.960;4.136;2023-03-12T01:03:45;9.57;;;3.35;;
51270;SDS011;37744;50.960;4.136;2023-03-12T01:06:10;14.80;;;3.70;;
51270;SDS011;37744;50.960;4.136;2023-03-12T01:08:36;7.45;;;3.10;;
51270;SDS011;37744;50.960;4.136;2023-03-12T01:11:01;11.35;;;3.80;;
51270;SDS011;37744;50.960;4.136;2023-03-12T01:13:28;11.43;;;3.92;;
51270;SDS011;37744;50.960;4.136;2023-03-12T01:15:53;8.38;;;4.07;;
51270;SDS011;37744;50.960;4.136;2023-03-12T01:18:19;9.85;;;3.45;;
51270;SDS011;37744;50.960;4.136;2023-03-12T01:20:44;7.50;;;3.28;;
51270;SDS011;37744;50.960;4.136;2023-03-12T01:23:09;8.05;;;3.78;;
51270;SDS011;37744;50.960;4.136;2023-03-12T01:25:35;13.90;;;3.90;;
51270;SDS011;37744;50.960;4.136;2023-03-12T01:28:00;8.25;;;3.30;;
51270;SDS011;37744;50.960;4.136;2023-03-12T01:30:28;6.80;;;3.15;;
51270;SDS011;37744;50.960;4.136;2023-03-12T01:32:54;6.90;;;3.40;;
51270;SDS011;37744;50.960;4.136;2023-03-12T01:35:20;11.32;;;3.20;;
51270;SDS011;37744;50.960;4.136;2023-03-12T01:37:45;10.38;;;3.60;;
51270;SDS011;37744;50.960;4.136;2023-03-12T01:40:15;11.00;;;2.83;;
51270;SDS011;37744;50.960;4.136;2023-03-12T01:42:42;8.88;;;3.47;;
51270;SDS011;37744;50.960;4.136;2023-03-12T01:50:16;7.80;;;3.05;;
51270;SDS011;37744;50.960;4.136;2023-03-12T01:52:41;8.00;;;3.20;;
51270;SDS011;37744;50.960;4.136;2023-03-12T01:55:07;8.65;;;3.50;;
51270;SDS011;37744;50.960;4.136;2023-03-12T01:57:42;7.80;;;3.42;;
51270;SDS011;37744;50.960;4.136;2023-03-12T02:00:13;10.23;;;3.33;;
51270;SDS011;37744;50.960;4.136;2023-03-12T02:02:40;9.77;;;3.17;;
51270;SDS011;37744;50.960;4.136;2023-03-12T02:05:15;9.80;;;3.00;;
51270;SDS011;37744;50.960;4.136;2023-03-12T02:07:42;10.52;;;3.20;;
51270;SDS011;37744;50.960;4.136;2023-03-12T02:10:08;8.27;;;3.20;;
51270;SDS011;37744;50.960;4.136;2023-03-12T02:12:33;11.98;;;3.20;;
51270;SDS011;37744;50.960;4.136;2023-03-12T02:14:59;12.10;;;2.92;;
51270;SDS011;37744;50.960;4.136;2023-03-12T02:17:25;10.45;;;3.08;;
51270;SDS011;37744;50.960;4.136;2023-03-12T02:19:54;9.07;;;3.05;;
51270;SDS011;37744;50.960;4.136;2023-03-12T02:22:23;8.65;;;3.15;;
51270;SDS011;37744;50.960;4.136;2023-03-12T02:27:14;9.00;;;3.30;;
51270;SDS011;37744;50.960;4.136;2023-03-12T02:29:42;7.68;;;3.15;;
51270;SDS011;37744;50.960;4.136;2023-03-12T02:32:08;8.30;;;3.22;;
51270;SDS011;37744;50.960;4.136;2023-03-12T02:34:38;7.07;;;3.25;;
51270;SDS011;37744;50.960;4.136;2023-03-12T02:37:03;8.55;;;3.40;;
51270;SDS011;37744;50.960;4.136;2023-03-12T02:39:28;11.63;;;3.15;;
51270;SDS011;37744;50.960;4.136;2023-03-12T02:41:54;9.05;;;3.28;;
51270;SDS011;37744;50.960;4.136;2023-03-12T02:44:25;9.57;;;2.92;;
51270;SDS011;37744;50.960;4.136;2023-03-12T02:46:54;10.15;;;3.47;;
51270;SDS011;37744;50.960;4.136;2023-03-12T02:49:20;5.75;;;3.13;;
51270;SDS011;37744;50.960;4.136;2023-03-12T02:51:46;12.95;;;3.53;;
51270;SDS011;37744;50.960;4.136;2023-03-12T02:54:12;9.88;;;3.28;;
51270;SDS011;37744;50.960;4.136;2023-03-12T02:56:39;5.90;;;3.08;;
51270;SDS011;37744;50.960;4.136;2023-03-12T02:59:05;6.65;;;3.20;;
51270;SDS011;37744;50.960;4.136;2023-03-12T03:01:30;8.07;;;3.25;;
51270;SDS011;37744;50.960;4.136;2023-03-12T03:03:59;8.77;;;3.53;;
51270;SDS011;37744;50.960;4.136;2023-03-12T03:06:25;8.02;;;3.28;;
51270;SDS011;37744;50.960;4.136;2023-03-12T03:08:50;9.50;;;3.03;;
51270;SDS011;37744;50.960;4.136;2023-03-12T03:11:16;4.35;;;3.00;;
51270;SDS011;37744;50.960;4.136;2023-03-12T03:13:41;7.75;;;2.97;;
51270;SDS011;37744;50.960;4.136;2023-03-12T03:16:06;10.35;;;3.15;;
51270;SDS011;37744;50.960;4.136;2023-03-12T03:18:32;10.68;;;3.53;;
51270;SDS011;37744;50.960;4.136;2023-03-12T03:20:58;6.13;;;2.83;;
51270;SDS011;37744;50.960;4.136;2023-03-12T03:23:24;9.55;;;3.42;;
51270;SDS011;37744;50.960;4.136;2023-03-12T03:25:49;8.10;;;3.53;;
51270;SDS011;37744;50.960;4.136;2023-03-12T03:28:18;10.27;;;3.17;;
51270;SDS011;37744;50.960;4.136;2023-03-12T03:30:44;7.68;;;3.38;;
51270;SDS011;37744;50.960;4.136;2023-03-12T03:33:09;8.48;;;3.85;;
51270;SDS011;37744;50.960;4.136;2023-03-12T03:35:34;10.43;;;3.35;;
51270;SDS011;37744;50.960;4.136;2023-03-12T03:38:00;6.53;;;3.15;;
51270;SDS011;37744;50.960;4.136;2023-03-12T03:40:25;8.35;;;3.33;;
51270;SDS011;37744;50.960;4.136;2023-03-12T03:42:51;9.00;;;3.97;;
51270;SDS011;37744;50.960;4.136;2023-03-12T03:45:17;9.63;;;3.10;;
51270;SDS011;37744;50.960;4.136;2023-03-12T03:47:43;9.82;;;3.50;;
51270;SDS011;37744;50.960;4.136;2023-03-12T03:50:09;9.38;;;3.53;;
51270;SDS011;37744;50.960;4.136;2023-03-12T03:52:34;9.80;;;4.05;;
51270;SDS011;37744;50.960;4.136;2023-03-12T03:54:59;6.80;;;3.38;;
51270;SDS011;37744;50.960;4.136;2023-03-12T03:57:25;8.30;;;3.60;;
51270;SDS011;37744;50.960;4.136;2023-03-12T03:59:51;9.95;;;4.20;;
51270;SDS011;37744;50.960;4.136;2023-03-12T04:02:17;10.05;;;3.50;;
51270;SDS011;37744;50.960;4.136;2023-03-12T04:04:42;15.57;;;4.22;;
51270;SDS011;37744;50.960;4.136;2023-03-12T04:07:09;13.10;;;4.20;;
51270;SDS011;37744;50.960;4.136;2023-03-12T04:09:35;12.95;;;4.40;;
51270;SDS011;37744;50.960;4.136;2023-03-12T04:12:01;13.63;;;4.97;;
51270;SDS011;37744;50.960;4.136;2023-03-12T04:14:28;9.18;;;4.82;;
51270;SDS011;37744;50.960;4.136;2023-03-12T04:16:53;12.52;;;4.97;;
51270;SDS011;37744;50.960;4.136;2023-03-12T04:19:18;15.15;;;5.95;;
51270;SDS011;37744;50.960;4.136;2023-03-12T04:21:43;13.45;;;5.80;;
51270;SDS011;37744;50.960;4.136;2023-03-12T04:24:12;12.63;;;6.13;;
51270;SDS011;37744;50.960;4.136;2023-03-12T04:26:37;16.42;;;6.70;;
51270;SDS011;37744;50.960;4.136;2023-03-12T04:29:03;14.93;;;6.93;;
51270;SDS011;37744;50.960;4.136;2023-03-12T04:31:29;17.83;;;6.45;;
51270;SDS011;37744;50.960;4.136;2023-03-12T04:33:54;13.70;;;7.15;;
51270;SDS011;37744;50.960;4.136;2023-03-12T04:36:20;16.48;;;6.55;;
51270;SDS011;37744;50.960;4.136;2023-03-12T04:38:45;17.77;;;7.13;;
51270;SDS011;37744;50.960;4.136;2023-03-12T04:41:11;16.38;;;7.22;;
51270;SDS011;37744;50.960;4.136;2023-03-12T04:43:38;18.33;;;7.35;;
51270;SDS011;37744;50.960;4.136;2023-03-12T04:46:05;17.70;;;7.47;;
51270;SDS011;37744;50.960;4.136;2023-03-12T04:48:31;15.80;;;7.82;;
51270;SDS011;37744;50.960;4.136;2023-03-12T04:50:56;17.80;;;7.20;;
51270;SDS011;37744;50.960;4.136;2023-03-12T04:53:22;14.32;;;8.20;;
51270;SDS011;37744;50.960;4.136;2023-03-12T04:55:47;19.50;;;8.13;;
51270;SDS011;37744;50.960;4.136;2023-03-12T04:58:12;17.92;;;7.90;;
51270;SDS011;37744;50.960;4.136;2023-03-12T05:00:38;20.42;;;8.88;;
51270;SDS011;37744;50.960;4.136;2023-03-12T05:03:04;18.33;;;9.52;;
51270;SDS011;37744;50.960;4.136;2023-03-12T05:05:29;20.27;;;10.00;;
51270;SDS011;37744;50.960;4.136;2023-03-12T05:07:54;21.90;;;10.45;;
51270;SDS011;37744;50.960;4.136;2023-03-12T05:10:19;22.67;;;11.05;;
51270;SDS011;37744;50.960;4.136;2023-03-12T05:12:45;25.20;;;11.57;;
51270;SDS011;37744;50.960;4.136;2023-03-12T05:15:10;24.27;;;11.73;;
51270;SDS011;37744;50.960;4.136;2023-03-12T05:17:35;18.30;;;10.88;;
51270;SDS011;37744;50.960;4.136;2023-03-12T05:20:01;25.20;;;11.77;;
51270;SDS011;37744;50.960;4.136;2023-03-12T05:22:28;30.00;;;12.77;;
51270;SDS011;37744;50.960;4.136;2023-03-12T05:24:53;27.05;;;13.38;;
51270;SDS011;37744;50.960;4.136;2023-03-12T05:27:20;25.98;;;13.35;;
51270;SDS011;37744;50.960;4.136;2023-03-12T05:29:45;33.70;;;13.15;;
51270;SDS011;37744;50.960;4.136;2023-03-12T05:32:10;27.35;;;13.68;;
51270;SDS011;37744;50.960;4.136;2023-03-12T05:34:38;26.60;;;14.02;;
51270;SDS011;37744;50.960;4.136;2023-03-12T05:37:03;29.55;;;13.60;;
51270;SDS011;37744;50.960;4.136;2023-03-12T05:39:28;30.10;;;14.27;;
51270;SDS011;37744;50.960;4.136;2023-03-12T05:41:54;31.80;;;14.73;;
51270;SDS011;37744;50.960;4.136;2023-03-12T05:44:21;29.60;;;15.52;;
51270;SDS011;37744;50.960;4.136;2023-03-12T05:46:47;31.90;;;16.08;;
51270;SDS011;37744;50.960;4.136;2023-03-12T05:49:12;34.97;;;16.23;;
51270;SDS011;37744;50.960;4.136;2023-03-12T05:51:37;35.45;;;15.85;;
51270;SDS011;37744;50.960;4.136;2023-03-12T05:54:02;35.97;;;17.05;;
51270;SDS011;37744;50.960;4.136;2023-03-12T05:56:29;35.72;;;17.65;;
51270;SDS011;37744;50.960;4.136;2023-03-12T05:58:54;33.50;;;18.30;;
51270;SDS011;37744;50.960;4.136;2023-03-12T06:01:21;43.47;;;19.25;;
51270;SDS011;37744;50.960;4.136;2023-03-12T06:03:46;34.55;;;17.67;;
51270;SDS011;37744;50.960;4.136;2023-03-12T06:06:12;39.33;;;19.33;;
51270;SDS011;37744;50.960;4.136;2023-03-12T06:08:39;38.13;;;19.63;;
51270;SDS011;37744;50.960;4.136;2023-03-12T06:11:04;38.58;;;19.45;;
51270;SDS011;37744;50.960;4.136;2023-03-12T06:13:31;40.58;;;19.77;;
51270;SDS011;37744;50.960;4.136;2023-03-12T06:16:10;47.08;;;22.00;;
51270;SDS011;37744;50.960;4.136;2023-03-12T06:18:37;45.70;;;21.60;;
51270;SDS011;37744;50.960;4.136;2023-03-12T06:21:16;43.83;;;20.83;;
51270;SDS011;37744;50.960;4.136;2023-03-12T06:23:41;40.42;;;20.38;;
51270;SDS011;37744;50.960;4.136;2023-03-12T06:26:07;44.03;;;21.13;;
51270;SDS011;37744;50.960;4.136;2023-03-12T06:28:33;41.15;;;20.50;;
51270;SDS011;37744;50.960;4.136;2023-03-12T06:30:58;43.13;;;20.90;;
51270;SDS011;37744;50.960;4.136;2023-03-12T06:33:24;39.72;;;20.52;;
51270;SDS011;37744;50.960;4.136;2023-03-12T06:35:52;43.58;;;21.65;;
51270;SDS011;37744;50.960;4.136;2023-03-12T06:38:17;45.25;;;22.55;;
51270;SDS011;37744;50.960;4.136;2023-03-12T06:40:42;50.20;;;22.58;;
51270;SDS011;37744;50.960;4.136;2023-03-12T06:43:08;45.45;;;21.38;;
51270;SDS011;37744;50.960;4.136;2023-03-12T06:45:36;53.05;;;22.75;;
51270;SDS011;37744;50.960;4.136;2023-03-12T06:48:01;59.47;;;24.33;;
51270;SDS011;37744;50.960;4.136;2023-03-12T06:50:27;60.63;;;23.88;;
51270;SDS011;37744;50.960;4.136;2023-03-12T06:52:53;53.35;;;24.13;;
51270;SDS011;37744;50.960;4.136;2023-03-12T06:55:18;56.90;;;26.05;;
51270;SDS011;37744;50.960;4.136;2023-03-12T06:57:43;54.63;;;24.30;;
51270;SDS011;37744;50.960;4.136;2023-03-12T07:00:09;63.95;;;25.25;;
51270;SDS011;37744;50.960;4.136;2023-03-12T07:02:34;59.35;;;25.65;;
51270;SDS011;37744;50.960;4.136;2023-03-12T07:05:00;66.43;;;26.23;;
51270;SDS011;37744;50.960;4.136;2023-03-12T07:07:25;61.80;;;26.17;;
51270;SDS011;37744;50.960;4.136;2023-03-12T07:09:50;61.95;;;25.95;;
51270;SDS011;37744;50.960;4.136;2023-03-12T07:12:15;62.08;;;25.58;;
51270;SDS011;37744;50.960;4.136;2023-03-12T07:14:41;62.38;;;28.35;;
51270;SDS011;37744;50.960;4.136;2023-03-12T07:17:06;61.80;;;26.17;;
51270;SDS011;37744;50.960;4.136;2023-03-12T07:19:32;65.53;;;25.85;;
51270;SDS011;37744;50.960;4.136;2023-03-12T07:21:58;70.95;;;28.08;;
51270;SDS011;37744;50.960;4.136;2023-03-12T07:24:24;60.97;;;25.42;;
51270;SDS011;37744;50.960;4.136;2023-03-12T07:26:50;67.10;;;27.08;;
51270;SDS011;37744;50.960;4.136;2023-03-12T07:29:16;69.50;;;26.58;;
51270;SDS011;37744;50.960;4.136;2023-03-12T07:31:41;68.95;;;25.48;;
51270;SDS011;37744;50.960;4.136;2023-03-12T07:34:08;66.85;;;26.17;;
51270;SDS011;37744;50.960;4.136;2023-03-12T07:36:34;69.18;;;25.80;;
51270;SDS011;37744;50.960;4.136;2023-03-12T07:38:59;66.30;;;25.75;;
51270;SDS011;37744;50.960;4.136;2023-03-12T07:41:25;67.15;;;24.40;;
51270;SDS011;37744;50.960;4.136;2023-03-12T07:43:50;70.47;;;24.75;;
51270;SDS011;37744;50.960;4.136;2023-03-12T07:46:15;63.35;;;24.10;;
51270;SDS011;37744;50.960;4.136;2023-03-12T07:48:41;78.55;;;24.85;;
51270;SDS011;37744;50.960;4.136;2023-03-12T07:51:08;64.93;;;23.08;;
51270;SDS011;37744;50.960;4.136;2023-03-12T07:53:33;62.22;;;23.45;;
51270;SDS011;37744;50.960;4.136;2023-03-12T07:55:59;73.97;;;23.10;;
51270;SDS011;37744;50.960;4.136;2023-03-12T07:58:24;77.43;;;24.20;;
51270;SDS011;37744;50.960;4.136;2023-03-12T08:00:50;84.22;;;22.65;;
51270;SDS011;37744;50.960;4.136;2023-03-12T08:03:17;81.30;;;22.13;;
51270;SDS011;37744;50.960;4.136;2023-03-12T08:05:42;68.50;;;19.65;;
51270;SDS011;37744;50.960;4.136;2023-03-12T08:08:08;74.63;;;19.63;;
51270;SDS011;37744;50.960;4.136;2023-03-12T08:10:34;74.72;;;19.15;;
51270;SDS011;37744;50.960;4.136;2023-03-12T08:13:00;77.97;;;17.10;;
51270;SDS011;37744;50.960;4.136;2023-03-12T08:15:25;78.35;;;15.95;;
51270;SDS011;37744;50.960;4.136;2023-03-12T08:17:50;70.25;;;14.82;;
51270;SDS011;37744;50.960;4.136;2023-03-12T08:20:15;75.78;;;16.10;;
51270;SDS011;37744;50.960;4.136;2023-03-12T08:22:41;57.55;;;13.02;;
51270;SDS011;37744;50.960;4.136;2023-03-12T08:25:07;54.00;;;12.43;;
51270;SDS011;37744;50.960;4.136;2023-03-12T08:27:32;55.20;;;11.43;;
51270;SDS011;37744;50.960;4.136;2023-03-12T08:29:58;50.80;;;11.35;;
51270;SDS011;37744;50.960;4.136;2023-03-12T08:32:24;62.25;;;11.82;;
51270;SDS011;37744;50.960;4.136;2023-03-12T08:34:50;59.70;;;11.85;;
51270;SDS011;37744;50.960;4.136;2023-03-12T08:37:15;44.78;;;10.10;;
51270;SDS011;37744;50.960;4.136;2023-03-12T08:39:40;45.20;;;9.02;;
51270;SDS011;37744;50.960;4.136;2023-03-12T08:42:06;47.22;;;10.10;;
51270;SDS011;37744;50.960;4.136;2023-03-12T08:44:32;50.17;;;9.13;;
51270;SDS011;37744;50.960;4.136;2023-03-12T08:46:58;63.13;;;10.25;;
51270;SDS011;37744;50.960;4.136;2023-03-12T08:49:23;55.00;;;9.13;;
51270;SDS011;37744;50.960;4.136;2023-03-12T08:51:49;44.28;;;9.40;;
51270;SDS011;37744;50.960;4.136;2023-03-12T08:54:17;51.78;;;9.00;;
51270;SDS011;37744;50.960;4.136;2023-03-12T08:56:43;44.00;;;9.80;;
51270;SDS011;37744;50.960;4.136;2023-03-12T08:59:11;47.92;;;9.27;;
51270;SDS011;37744;50.960;4.136;2023-03-12T09:01:37;54.13;;;9.20;;
51270;SDS011;37744;50.960;4.136;2023-03-12T09:04:03;48.22;;;10.10;;
51270;SDS011;37744;50.960;4.136;2023-03-12T09:06:30;46.88;;;8.73;;
51270;SDS011;37744;50.960;4.136;2023-03-12T09:08:55;54.70;;;9.65;;
51270;SDS011;37744;50.960;4.136;2023-03-12T09:11:20;59.60;;;9.88;;
51270;SDS011;37744;50.960;4.136;2023-03-12T09:13:46;55.30;;;10.07;;
51270;SDS011;37744;50.960;4.136;2023-03-12T09:16:11;48.90;;;9.15;;
51270;SDS011;37744;50.960;4.136;2023-03-12T09:18:36;47.13;;;8.65;;
51270;SDS011;37744;50.960;4.136;2023-03-12T09:21:02;58.70;;;9.25;;
51270;SDS011;37744;50.960;4.136;2023-03-12T09:23:27;48.95;;;9.27;;
51270;SDS011;37744;50.960;4.136;2023-03-12T09:25:53;47.88;;;8.60;;
51270;SDS011;37744;50.960;4.136;2023-03-12T09:28:19;42.75;;;8.82;;
51270;SDS011;37744;50.960;4.136;2023-03-12T09:30:45;41.25;;;7.72;;
51270;SDS011;37744;50.960;4.136;2023-03-12T09:33:11;48.10;;;8.77;;
51270;SDS011;37744;50.960;4.136;2023-03-12T09:35:37;43.22;;;8.77;;
51270;SDS011;37744;50.960;4.136;2023-03-12T09:38:02;49.72;;;8.75;;
51270;SDS011;37744;50.960;4.136;2023-03-12T09:40:31;39.90;;;8.70;;
51270;SDS011;37744;50.960;4.136;2023-03-12T09:42:59;45.05;;;8.45;;
51270;SDS011;37744;50.960;4.136;2023-03-12T09:45:28;48.22;;;8.63;;
51270;SDS011;37744;50.960;4.136;2023-03-12T09:47:56;42.47;;;7.18;;
51270;SDS011;37744;50.960;4.136;2023-03-12T09:50:27;36.25;;;7.43;;
51270;SDS011;37744;50.960;4.136;2023-03-12T09:55:19;42.45;;;8.13;;
51270;SDS011;37744;50.960;4.136;2023-03-12T09:57:45;43.85;;;9.02;;
51270;SDS011;37744;50.960;4.136;2023-03-12T10:00:11;49.78;;;8.07;;
51270;SDS011;37744;50.960;4.136;2023-03-12T10:07:58;44.78;;;7.97;;
51270;SDS011;37744;50.960;4.136;2023-03-12T10:24:02;33.97;;;7.38;;
51270;SDS011;37744;50.960;4.136;2023-03-12T10:26:34;36.83;;;7.22;;
51270;SDS011;37744;50.960;4.136;2023-03-12T10:29:02;42.72;;;7.07;;
51270;SDS011;37744;50.960;4.136;2023-03-12T10:31:31;44.47;;;7.72;;
51270;SDS011;37744;50.960;4.136;2023-03-12T10:33:58;38.75;;;7.00;;
51270;SDS011;37744;50.960;4.136;2023-03-12T10:36:27;36.67;;;7.50;;
51270;SDS011;37744;50.960;4.136;2023-03-12T10:38:54;48.05;;;7.60;;
51270;SDS011;37744;50.960;4.136;2023-03-12T10:41:24;37.63;;;7.05;;
51270;SDS011;37744;50.960;4.136;2023-03-12T10:43:49;46.95;;;7.78;;
51270;SDS011;37744;50.960;4.136;2023-03-12T10:46:29;43.53;;;8.00;;
51270;SDS011;37744;50.960;4.136;2023-03-12T10:51:53;47.90;;;8.32;;
51270;SDS011;37744;50.960;4.136;2023-03-12T10:54:21;43.30;;;8.05;;
51270;SDS011;37744;50.960;4.136;2023-03-12T10:56:47;43.13;;;7.45;;
51270;SDS011;37744;50.960;4.136;2023-03-12T10:59:19;40.70;;;7.07;;
51270;SDS011;37744;50.960;4.136;2023-03-12T11:01:46;46.78;;;8.48;;
51270;SDS011;37744;50.960;4.136;2023-03-12T11:04:20;40.65;;;8.25;;
51270;SDS011;37744;50.960;4.136;2023-03-12T11:09:42;44.20;;;8.52;;
51270;SDS011;37744;50.960;4.136;2023-03-12T11:14:48;48.17;;;8.55;;
51270;SDS011;37744;50.960;4.136;2023-03-12T11:17:23;48.72;;;10.07;;
51270;SDS011;37744;50.960;4.136;2023-03-12T11:19:49;36.03;;;7.15;;
51270;SDS011;37744;50.960;4.136;2023-03-12T11:22:15;37.47;;;8.05;;
51270;SDS011;37744;50.960;4.136;2023-03-12T11:24:57;44.70;;;8.77;;
51270;SDS011;37744;50.960;4.136;2023-03-12T11:27:37;57.20;;;8.90;;
51270;SDS011;37744;50.960;4.136;2023-03-12T11:30:05;40.08;;;8.02;;
51270;SDS011;37744;50.960;4.136;2023-03-12T11:32:35;46.30;;;8.35;;
51270;SDS011;37744;50.960;4.136;2023-03-12T11:35:01;41.35;;;7.60;;
51270;SDS011;37744;50.960;4.136;2023-03-12T11:47:49;50.47;;;7.47;;
51270;SDS011;37744;50.960;4.136;2023-03-12T11:55:15;41.08;;;7.90;;
51270;SDS011;37744;50.960;4.136;2023-03-12T12:00:14;47.30;;;8.15;;
51270;SDS011;37744;50.960;4.136;2023-03-12T12:07:50;41.47;;;7.47;;
51270;SDS011;37744;50.960;4.136;2023-03-12T12:15:36;40.55;;;7.10;;
51270;SDS011;37744;50.960;4.136;2023-03-12T12:20:41;40.67;;;7.20;;
51270;SDS011;37744;50.960;4.136;2023-03-12T12:25:55;42.70;;;7.07;;
51270;SDS011;37744;50.960;4.136;2023-03-12T12:33:49;32.33;;;5.22;;
51270;SDS011;37744;50.960;4.136;2023-03-12T12:36:18;31.92;;;6.18;;
51270;SDS011;37744;50.960;4.136;2023-03-12T12:43:39;35.70;;;6.35;;
51270;SDS011;37744;50.960;4.136;2023-03-12T12:46:12;32.05;;;5.78;;
51270;SDS011;37744;50.960;4.136;2023-03-12T12:48:43;35.72;;;5.88;;
51270;SDS011;37744;50.960;4.136;2023-03-12T12:51:10;29.70;;;5.65;;
51270;SDS011;37744;50.960;4.136;2023-03-12T12:53:42;29.98;;;5.90;;
51270;SDS011;37744;50.960;4.136;2023-03-12T12:56:10;29.90;;;6.28;;
51270;SDS011;37744;50.960;4.136;2023-03-12T13:01:04;35.50;;;5.95;;
51270;SDS011;37744;50.960;4.136;2023-03-12T13:03:29;34.08;;;5.68;;
51270;SDS011;37744;50.960;4.136;2023-03-12T13:05:58;31.50;;;6.25;;
51270;SDS011;37744;50.960;4.136;2023-03-12T13:08:31;28.17;;;5.15;;
51270;SDS011;37744;50.960;4.136;2023-03-12T13:10:57;29.83;;;5.45;;
51270;SDS011;37744;50.960;4.136;2023-03-12T13:13:22;33.58;;;5.50;;
51270;SDS011;37744;50.960;4.136;2023-03-12T13:15:48;30.73;;;5.50;;
51270;SDS011;37744;50.960;4.136;2023-03-12T13:18:20;35.15;;;6.57;;
51270;SDS011;37744;50.960;4.136;2023-03-12T13:23:28;36.05;;;5.85;;
51270;SDS011;37744;50.960;4.136;2023-03-12T13:30:57;25.55;;;5.93;;
51270;SDS011;37744;50.960;4.136;2023-03-12T13:33:44;37.92;;;6.57;;
51270;SDS011;37744;50.960;4.136;2023-03-12T13:41:38;32.13;;;6.47;;
51270;SDS011;37744;50.960;4.136;2023-03-12T13:46:48;38.65;;;6.82;;
51270;SDS011;37744;50.960;4.136;2023-03-12T13:49:20;37.42;;;6.95;;
51270;SDS011;37744;50.960;4.136;2023-03-12T13:52:36;34.20;;;5.88;;
51270;SDS011;37744;50.960;4.136;2023-03-12T13:54:32;40.17;;;6.20;;
51270;SDS011;37744;50.960;4.136;2023-03-12T13:57:00;39.53;;;6.53;;
51270;SDS011;37744;50.960;4.136;2023-03-12T13:59:27;35.67;;;6.10;;
51270;SDS011;37744;50.960;4.136;2023-03-12T14:01:55;27.42;;;6.28;;
51270;SDS011;37744;50.960;4.136;2023-03-12T14:04:35;28.25;;;5.10;;
51270;SDS011;37744;50.960;4.136;2023-03-12T14:09:33;28.95;;;5.32;;
51270;SDS011;37744;50.960;4.136;2023-03-12T14:15:02;34.10;;;6.38;;
51270;SDS011;37744;50.960;4.136;2023-03-12T14:17:29;30.67;;;5.38;;
51270;SDS011;37744;50.960;4.136;2023-03-12T14:19:59;28.95;;;5.82;;
51270;SDS011;37744;50.960;4.136;2023-03-12T14:22:32;27.30;;;5.07;;
51270;SDS011;37744;50.960;4.136;2023-03-12T14:25:00;26.95;;;4.88;;
51270;SDS011;37744;50.960;4.136;2023-03-12T14:27:33;29.30;;;6.13;;
51270;SDS011;37744;50.960;4.136;2023-03-12T14:30:09;36.10;;;5.40;;
51270;SDS011;37744;50.960;4.136;2023-03-12T14:32:41;27.00;;;4.75;;
51270;SDS011;37744;50.960;4.136;2023-03-12T14:35:18;30.83;;;5.25;;
51270;SDS011;37744;50.960;4.136;2023-03-12T14:37:51;30.65;;;4.88;;
51270;SDS011;37744;50.960;4.136;2023-03-12T14:42:45;27.23;;;5.53;;
51270;SDS011;37744;50.960;4.136;2023-03-12T14:45:11;25.13;;;5.18;;
51270;SDS011;37744;50.960;4.136;2023-03-12T14:47:41;33.72;;;5.07;;
51270;SDS011;37744;50.960;4.136;2023-03-12T14:50:24;29.95;;;5.35;;
51270;SDS011;37744;50.960;4.136;2023-03-12T14:52:50;35.13;;;5.70;;
51270;SDS011;37744;50.960;4.136;2023-03-12T14:55:19;29.77;;;5.28;;
51270;SDS011;37744;50.960;4.136;2023-03-12T14:57:46;29.98;;;5.25;;
51270;SDS011;37744;50.960;4.136;2023-03-12T15:00:25;36.30;;;5.50;;
51270;SDS011;37744;50.960;4.136;2023-03-12T15:02:52;31.70;;;5.53;;
51270;SDS011;37744;50.960;4.136;2023-03-12T15:05:18;29.02;;;5.15;;
51270;SDS011;37744;50.960;4.136;2023-03-12T15:07:44;31.52;;;5.03;;
51270;SDS011;37744;50.960;4.136;2023-03-12T15:10:23;30.80;;;5.03;;
51270;SDS011;37744;50.960;4.136;2023-03-12T15:12:49;29.90;;;5.38;;
51270;SDS011;37744;50.960;4.136;2023-03-12T15:15:22;35.10;;;6.13;;
51270;SDS011;37744;50.960;4.136;2023-03-12T15:17:49;30.25;;;5.18;;
51270;SDS011;37744;50.960;4.136;2023-03-12T15:20:14;32.50;;;4.45;;
51270;SDS011;37744;50.960;4.136;2023-03-12T15:22:40;21.33;;;4.55;;
51270;SDS011;37744;50.960;4.136;2023-03-12T15:27:59;28.08;;;5.15;;
51270;SDS011;37744;50.960;4.136;2023-03-12T15:30:25;34.55;;;5.50;;
51270;SDS011;37744;50.960;4.136;2023-03-12T15:38:30;25.38;;;5.43;;
51270;SDS011;37744;50.960;4.136;2023-03-12T15:40:58;32.10;;;5.65;;
51270;SDS011;37744;50.960;4.136;2023-03-12T15:43:25;30.73;;;5.82;;
51270;SDS011;37744;50.960;4.136;2023-03-12T15:46:00;27.80;;;5.45;;
51270;SDS011;37744;50.960;4.136;2023-03-12T15:49:10;27.92;;;5.45;;
51270;SDS011;37744;50.960;4.136;2023-03-12T15:51:34;27.92;;;5.15;;
51270;SDS011;37744;50.960;4.136;2023-03-12T15:54:42;27.15;;;5.68;;
51270;SDS011;37744;50.960;4.136;2023-03-12T15:56:48;35.10;;;5.50;;
51270;SDS011;37744;50.960;4.136;2023-03-12T15:59:24;29.58;;;5.13;;
51270;SDS011;37744;50.960;4.136;2023-03-12T16:01:53;38.80;;;5.82;;
51270;SDS011;37744;50.960;4.136;2023-03-12T16:04:19;35.47;;;5.35;;
51270;SDS011;37744;50.960;4.136;2023-03-12T16:06:45;42.25;;;5.82;;
51270;SDS011;37744;50.960;4.136;2023-03-12T16:09:22;38.88;;;6.43;;
51270;SDS011;37744;50.960;4.136;2023-03-12T16:11:50;29.38;;;5.95;;
51270;SDS011;37744;50.960;4.136;2023-03-12T16:14:17;30.08;;;6.05;;
51270;SDS011;37744;50.960;4.136;2023-03-12T16:16:43;39.20;;;5.75;;
51270;SDS011;37744;50.960;4.136;2023-03-12T16:19:22;30.73;;;6.13;;
51270;SDS011;37744;50.960;4.136;2023-03-12T16:21:48;38.60;;;5.93;;
51270;SDS011;37744;50.960;4.136;2023-03-12T16:24:13;35.40;;;5.40;;
51270;SDS011;37744;50.960;4.136;2023-03-12T16:26:44;34.00;;;5.70;;
51270;SDS011;37744;50.960;4.136;2023-03-12T16:29:11;38.75;;;7.03;;